sensor_id;sensor_type;location;lat;lon;timestamp;pressure;altitude;pressure_sealevel;temperature;humidity
44839;BME280;30576;42.098;24.876;2023-03-12T00:00:11;98651.28;;;8.19;63.89
44839;BME280;30576;42.098;24.876;2023-03-12T00:02:36;98640.97;;;8.10;62.69
44839;BME280;30576;42.098;24.876;2023-03-12T00:05:02;98648.66;;;8.19;62.99
44839;BME280;30576;42.098;24.876;2023-03-12T00:07:27;98661.16;;;8.07;62.20
44839;BME280;30576;42.098;24.876;2023-03-12T00:09:52;98649.69;;;8.12;62.34
44839;BME280;30576;42.098;24.876;2023-03-12T00:12:18;98648.88;;;8.10;62.34
44839;BME280;30576;42.098;24.876;2023-03-12T00:14:44;98658.31;;;8.17;62.77
44839;BME280;30576;42.098;24.876;2023-03-12T00:17:09;98656.09;;;7.98;63.18
44839;BME280;30576;42.098;24.876;2023-03-12T00:19:34;98665.13;;;7.85;64.09
44839;BME280;30576;42.098;24.876;2023-03-12T00:22:00;98664.97;;;7.93;63.04
44839;BME280;30576;42.098;24.876;2023-03-12T00:24:25;98653.84;;;7.80;62.44
44839;BME280;30576;42.098;24.876;2023-03-12T00:26:50;98658.22;;;7.81;62.13
44839;BME280;30576;42.098;24.876;2023-03-12T00:29:15;98643.25;;;7.84;62.65
44839;BME280;30576;42.098;24.876;2023-03-12T00:31:41;98641.78;;;7.71;62.43
44839;BME280;30576;42.098;24.876;2023-03-12T00:34:06;98648.03;;;7.64;63.01
44839;BME280;30576;42.098;24.876;2023-03-12T00:36:31;98660.97;;;7.73;60.77
44839;BME280;30576;42.098;24.876;2023-03-12T00:38:57;98651.53;;;7.64;61.46
44839;BME280;30576;42.098;24.876;2023-03-12T00:41:23;98657.63;;;7.66;62.35
44839;BME280;30576;42.098;24.876;2023-03-12T00:43:49;98659.41;;;7.64;63.51
44839;BME280;30576;42.098;24.876;2023-03-12T00:46:14;98656.66;;;7.24;62.99
44839;BME280;30576;42.098;24.876;2023-03-12T00:48:40;98656.00;;;7.12;63.33
44839;BME280;30576;42.098;24.876;2023-03-12T00:51:05;98653.31;;;7.17;63.51
44839;BME280;30576;42.098;24.876;2023-03-12T00:53:31;98657.72;;;7.13;63.61
44839;BME280;30576;42.098;24.876;2023-03-12T00:55:56;98672.66;;;7.10;63.79
44839;BME280;30576;42.098;24.876;2023-03-12T00:58:21;98667.50;;;7.04;63.48
44839;BME280;30576;42.098;24.876;2023-03-12T01:00:47;98664.16;;;6.95;63.20
44839;BME280;30576;42.098;24.876;2023-03-12T01:03:13;98657.41;;;6.80;61.83
44839;BME280;30576;42.098;24.876;2023-03-12T01:05:38;98659.13;;;6.83;61.90
44839;BME280;30576;42.098;24.876;2023-03-12T01:08:05;98651.16;;;6.89;61.35
44839;BME280;30576;42.098;24.876;2023-03-12T01:10:31;98655.63;;;6.81;61.61
44839;BME280;30576;42.098;24.876;2023-03-12T01:12:56;98662.75;;;6.73;61.05
44839;BME280;30576;42.098;24.876;2023-03-12T01:15:22;98656.78;;;6.65;60.91
44839;BME280;30576;42.098;24.876;2023-03-12T01:17:47;98672.19;;;6.85;60.74
44839;BME280;30576;42.098;24.876;2023-03-12T01:20:12;98676.63;;;6.79;60.09
44839;BME280;30576;42.098;24.876;2023-03-12T01:22:38;98675.63;;;6.88;59.79
44839;BME280;30576;42.098;24.876;2023-03-12T01:25:03;98683.38;;;6.94;59.32
44839;BME280;30576;42.098;24.876;2023-03-12T01:27:29;98690.50;;;6.88;60.51
44839;BME280;30576;42.098;24.876;2023-03-12T01:29:54;98712.44;;;6.82;60.41
44839;BME280;30576;42.098;24.876;2023-03-12T01:32:19;98701.38;;;6.63;61.41
44839;BME280;30576;42.098;24.876;2023-03-12T01:34:45;98702.44;;;6.48;62.18
44839;BME280;30576;42.098;24.876;2023-03-12T01:37:10;98701.75;;;6.37;62.78
44839;BME280;30576;42.098;24.876;2023-03-12T01:39:35;98704.41;;;6.34;61.83
44839;BME280;30576;42.098;24.876;2023-03-12T01:42:01;98708.84;;;6.27;61.52
44839;BME280;30576;42.098;24.876;2023-03-12T01:44:26;98708.88;;;6.24;61.14
44839;BME280;30576;42.098;24.876;2023-03-12T01:46:52;98723.06;;;6.09;61.00
44839;BME280;30576;42.098;24.876;2023-03-12T01:49:28;98729.91;;;6.18;60.92
44839;BME280;30576;42.098;24.876;2023-03-12T01:54:41;98755.16;;;6.23;59.27
44839;BME280;30576;42.098;24.876;2023-03-12T01:57:09;98747.13;;;6.37;58.17
44839;BME280;30576;42.098;24.876;2023-03-12T01:59:38;98754.22;;;6.31;54.84
44839;BME280;30576;42.098;24.876;2023-03-12T02:02:05;98762.94;;;6.30;55.61
44839;BME280;30576;42.098;24.876;2023-03-12T02:04:30;98756.91;;;6.24;54.64
44839;BME280;30576;42.098;24.876;2023-03-12T02:07:04;98765.69;;;6.19;54.58
44839;BME280;30576;42.098;24.876;2023-03-12T02:09:32;98778.84;;;6.13;54.31
44839;BME280;30576;42.098;24.876;2023-03-12T02:11:58;98775.31;;;6.18;54.75
44839;BME280;30576;42.098;24.876;2023-03-12T02:14:24;98791.06;;;6.15;54.44
44839;BME280;30576;42.098;24.876;2023-03-12T02:16:49;98796.50;;;5.98;54.45
44839;BME280;30576;42.098;24.876;2023-03-12T02:19:17;98794.59;;;6.11;54.44
44839;BME280;30576;42.098;24.876;2023-03-12T02:21:44;98798.09;;;6.08;54.71
44839;BME280;30576;42.098;24.876;2023-03-12T02:26:35;98808.69;;;5.98;55.32
44839;BME280;30576;42.098;24.876;2023-03-12T02:29:02;98824.31;;;6.04;54.68
44839;BME280;30576;42.098;24.876;2023-03-12T02:31:34;98824.50;;;5.84;55.16
44839;BME280;30576;42.098;24.876;2023-03-12T02:34:01;98834.97;;;5.82;55.24
44839;BME280;30576;42.098;24.876;2023-03-12T02:36:27;98835.03;;;5.76;54.65
44839;BME280;30576;42.098;24.876;2023-03-12T02:38:52;98833.31;;;5.77;55.12
44839;BME280;30576;42.098;24.876;2023-03-12T02:41:25;98841.16;;;5.78;54.61
44839;BME280;30576;42.098;24.876;2023-03-12T02:46:28;98849.09;;;5.69;54.40
44839;BME280;30576;42.098;24.876;2023-03-12T02:48:54;98853.34;;;5.78;55.23
44839;BME280;30576;42.098;24.876;2023-03-12T02:51:20;98864.84;;;5.60;54.76
44839;BME280;30576;42.098;24.876;2023-03-12T02:53:45;98871.78;;;5.62;54.64
44839;BME280;30576;42.098;24.876;2023-03-12T02:56:11;98879.66;;;5.59;54.37
44839;BME280;30576;42.098;24.876;2023-03-12T02:58:36;98877.97;;;5.56;53.93
44839;BME280;30576;42.098;24.876;2023-03-12T03:01:02;98881.34;;;5.68;53.96
44839;BME280;30576;42.098;24.876;2023-03-12T03:03:27;98881.28;;;5.76;53.66
44839;BME280;30576;42.098;24.876;2023-03-12T03:05:52;98891.00;;;5.64;53.92
44839;BME280;30576;42.098;24.876;2023-03-12T03:08:18;98900.53;;;5.70;53.78
44839;BME280;30576;42.098;24.876;2023-03-12T03:10:43;98908.31;;;5.76;53.38
44839;BME280;30576;42.098;24.876;2023-03-12T03:13:08;98907.59;;;5.59;53.16
44839;BME280;30576;42.098;24.876;2023-03-12T03:15:34;98902.22;;;5.76;53.00
44839;BME280;30576;42.098;24.876;2023-03-12T03:17:59;98906.63;;;5.72;53.21
44839;BME280;30576;42.098;24.876;2023-03-12T03:20:27;98898.84;;;5.61;52.30
44839;BME280;30576;42.098;24.876;2023-03-12T03:22:53;98911.09;;;5.54;53.12
44839;BME280;30576;42.098;24.876;2023-03-12T03:25:18;98914.59;;;5.58;52.64
44839;BME280;30576;42.098;24.876;2023-03-12T03:27:46;98920.78;;;5.45;52.30
44839;BME280;30576;42.098;24.876;2023-03-12T03:30:14;98919.84;;;5.55;51.54
44839;BME280;30576;42.098;24.876;2023-03-12T03:32:40;98922.47;;;5.52;51.88
44839;BME280;30576;42.098;24.876;2023-03-12T03:35:06;98921.50;;;5.62;51.67
44839;BME280;30576;42.098;24.876;2023-03-12T03:37:31;98921.53;;;5.57;51.66
44839;BME280;30576;42.098;24.876;2023-03-12T03:39:57;98927.75;;;5.44;51.37
44839;BME280;30576;42.098;24.876;2023-03-12T03:42:22;98933.75;;;5.57;51.58
44839;BME280;30576;42.098;24.876;2023-03-12T03:44:47;98933.78;;;5.54;51.03
44839;BME280;30576;42.098;24.876;2023-03-12T03:47:13;98935.50;;;5.60;50.59
44839;BME280;30576;42.098;24.876;2023-03-12T03:49:38;98943.47;;;5.41;50.93
44839;BME280;30576;42.098;24.876;2023-03-12T03:52:03;98938.16;;;5.52;50.80
44839;BME280;30576;42.098;24.876;2023-03-12T03:54:30;98947.75;;;5.51;49.83
44839;BME280;30576;42.098;24.876;2023-03-12T03:56:55;98951.31;;;5.44;50.17
44839;BME280;30576;42.098;24.876;2023-03-12T03:59:20;98944.34;;;5.40;50.43
44839;BME280;30576;42.098;24.876;2023-03-12T04:01:46;98948.69;;;5.46;49.93
44839;BME280;30576;42.098;24.876;2023-03-12T04:04:11;98948.69;;;5.41;50.18
44839;BME280;30576;42.098;24.876;2023-03-12T04:06:36;98952.19;;;5.40;50.42
44839;BME280;30576;42.098;24.876;2023-03-12T04:09:02;98960.00;;;5.48;50.21
44839;BME280;30576;42.098;24.876;2023-03-12T04:11:28;98971.25;;;5.59;50.01
44839;BME280;30576;42.098;24.876;2023-03-12T04:13:53;98979.09;;;5.59;49.66
44839;BME280;30576;42.098;24.876;2023-03-12T04:16:18;98981.72;;;5.59;49.56
44839;BME280;30576;42.098;24.876;2023-03-12T04:18:44;98986.13;;;5.54;49.96
44839;BME280;30576;42.098;24.876;2023-03-12T04:21:10;98979.97;;;5.64;49.53
44839;BME280;30576;42.098;24.876;2023-03-12T04:23:35;98986.13;;;5.49;50.14
44839;BME280;30576;42.098;24.876;2023-03-12T04:26:01;98985.25;;;5.55;50.09
44839;BME280;30576;42.098;24.876;2023-03-12T04:28:27;98991.41;;;5.42;50.27
44839;BME280;30576;42.098;24.876;2023-03-12T04:30:59;98993.13;;;5.50;50.53
44839;BME280;30576;42.098;24.876;2023-03-12T04:33:28;98987.06;;;5.37;50.21
44839;BME280;30576;42.098;24.876;2023-03-12T04:35:54;98994.88;;;5.42;49.87
44839;BME280;30576;42.098;24.876;2023-03-12T04:38:22;98995.75;;;5.49;49.77
44839;BME280;30576;42.098;24.876;2023-03-12T04:41:01;98992.25;;;5.48;50.27
44839;BME280;30576;42.098;24.876;2023-03-12T04:43:28;99000.03;;;5.56;50.19
44839;BME280;30576;42.098;24.876;2023-03-12T04:45:54;99003.59;;;5.49;49.25
44839;BME280;30576;42.098;24.876;2023-03-12T04:48:20;99011.28;;;5.73;49.52
44839;BME280;30576;42.098;24.876;2023-03-12T04:50:45;99011.38;;;5.60;48.80
44839;BME280;30576;42.098;24.876;2023-03-12T04:53:10;99017.41;;;5.71;48.23
44839;BME280;30576;42.098;24.876;2023-03-12T04:55:35;99026.00;;;5.88;47.38
44839;BME280;30576;42.098;24.876;2023-03-12T04:58:01;99033.06;;;5.79;47.54
44839;BME280;30576;42.098;24.876;2023-03-12T05:00:26;99036.53;;;5.79;48.33
44839;BME280;30576;42.098;24.876;2023-03-12T05:02:51;99039.19;;;5.73;48.67
44839;BME280;30576;42.098;24.876;2023-03-12T05:05:17;99037.44;;;5.77;48.59
44839;BME280;30576;42.098;24.876;2023-03-12T05:07:42;99045.28;;;5.78;48.58
44839;BME280;30576;42.098;24.876;2023-03-12T05:10:08;99057.47;;;5.79;48.51
44839;BME280;30576;42.098;24.876;2023-03-12T05:12:33;99062.72;;;5.79;48.63
44839;BME280;30576;42.098;24.876;2023-03-12T05:14:58;99064.50;;;5.72;47.59
44839;BME280;30576;42.098;24.876;2023-03-12T05:17:24;99065.28;;;5.85;47.57
44839;BME280;30576;42.098;24.876;2023-03-12T05:19:49;99068.81;;;5.83;47.97
44839;BME280;30576;42.098;24.876;2023-03-12T05:22:14;99069.72;;;5.79;48.28
44839;BME280;30576;42.098;24.876;2023-03-12T05:24:40;99074.88;;;5.88;47.71
44839;BME280;30576;42.098;24.876;2023-03-12T05:27:05;99070.50;;;5.93;47.76
44839;BME280;30576;42.098;24.876;2023-03-12T05:29:32;99080.09;;;6.00;47.84
44839;BME280;30576;42.098;24.876;2023-03-12T05:31:59;99089.66;;;6.09;46.99
44839;BME280;30576;42.098;24.876;2023-03-12T05:34:25;99093.13;;;6.06;47.24
44839;BME280;30576;42.098;24.876;2023-03-12T05:36:50;99085.31;;;5.96;47.25
44839;BME280;30576;42.098;24.876;2023-03-12T05:39:16;99087.09;;;6.00;47.40
44839;BME280;30576;42.098;24.876;2023-03-12T05:41:41;99098.34;;;6.11;47.16
44839;BME280;30576;42.098;24.876;2023-03-12T05:44:08;99096.47;;;6.27;45.84
44839;BME280;30576;42.098;24.876;2023-03-12T05:46:34;99098.31;;;6.14;45.77
44839;BME280;30576;42.098;24.876;2023-03-12T05:49:00;99110.47;;;6.29;45.75
44839;BME280;30576;42.098;24.876;2023-03-12T05:51:25;99116.59;;;6.26;45.80
44839;BME280;30576;42.098;24.876;2023-03-12T05:53:50;99121.66;;;6.48;46.13
44839;BME280;30576;42.098;24.876;2023-03-12T05:56:16;99123.47;;;6.41;45.30
44839;BME280;30576;42.098;24.876;2023-03-12T05:58:41;99122.56;;;6.44;45.90
44839;BME280;30576;42.098;24.876;2023-03-12T06:01:11;99129.38;;;6.68;45.12
44839;BME280;30576;42.098;24.876;2023-03-12T06:03:36;99138.03;;;6.76;43.75
44839;BME280;30576;42.098;24.876;2023-03-12T06:06:02;99125.81;;;6.78;44.33
44839;BME280;30576;42.098;24.876;2023-03-12T06:08:27;99145.81;;;6.86;43.90
44839;BME280;30576;42.098;24.876;2023-03-12T06:10:52;99144.03;;;6.92;43.68
44839;BME280;30576;42.098;24.876;2023-03-12T06:13:20;99137.16;;;6.76;43.02
44839;BME280;30576;42.098;24.876;2023-03-12T06:15:46;99142.44;;;6.74;42.78
44839;BME280;30576;42.098;24.876;2023-03-12T06:18:12;99147.59;;;6.85;43.36
44839;BME280;30576;42.098;24.876;2023-03-12T06:20:37;99157.19;;;6.88;42.99
44839;BME280;30576;42.098;24.876;2023-03-12T06:23:02;99162.22;;;7.11;43.11
44839;BME280;30576;42.098;24.876;2023-03-12T06:25:27;99161.19;;;7.24;43.85
44839;BME280;30576;42.098;24.876;2023-03-12T06:27:53;99165.56;;;7.27;42.61
44839;BME280;30576;42.098;24.876;2023-03-12T06:30:18;99175.22;;;7.23;42.67
44839;BME280;30576;42.098;24.876;2023-03-12T06:32:43;99172.28;;;7.54;43.62
44839;BME280;30576;42.098;24.876;2023-03-12T06:35:09;99183.75;;;7.44;43.24
44839;BME280;30576;42.098;24.876;2023-03-12T06:37:34;99187.06;;;7.60;42.14
44839;BME280;30576;42.098;24.876;2023-03-12T06:39:59;99190.69;;;7.51;40.53
44839;BME280;30576;42.098;24.876;2023-03-12T06:42:25;99194.25;;;7.44;41.55
44839;BME280;30576;42.098;24.876;2023-03-12T06:44:50;99191.50;;;7.55;40.92
44839;BME280;30576;42.098;24.876;2023-03-12T06:47:16;99205.28;;;7.75;41.65
44839;BME280;30576;42.098;24.876;2023-03-12T06:49:41;99188.53;;;7.85;40.26
44839;BME280;30576;42.098;24.876;2023-03-12T06:52:07;99190.34;;;7.82;40.90
44839;BME280;30576;42.098;24.876;2023-03-12T06:54:32;99205.41;;;7.64;41.20
44839;BME280;30576;42.098;24.876;2023-03-12T06:56:57;99187.00;;;7.66;40.57
44839;BME280;30576;42.098;24.876;2023-03-12T06:59:24;99193.97;;;7.68;40.30
44839;BME280;30576;42.098;24.876;2023-03-12T07:01:49;99193.22;;;7.60;41.42
44839;BME280;30576;42.098;24.876;2023-03-12T07:04:14;99195.59;;;7.82;40.84
44839;BME280;30576;42.098;24.876;2023-03-12T07:06:40;99188.91;;;8.24;41.20
44839;BME280;30576;42.098;24.876;2023-03-12T07:09:05;99204.13;;;7.99;38.77
44839;BME280;30576;42.098;24.876;2023-03-12T07:11:31;99171.00;;;7.87;38.70
44839;BME280;30576;42.098;24.876;2023-03-12T07:13:56;99189.22;;;8.00;39.14
44839;BME280;30576;42.098;24.876;2023-03-12T07:16:22;99186.53;;;8.04;39.41
44839;BME280;30576;42.098;24.876;2023-03-12T07:18:47;99178.16;;;8.45;38.76
44839;BME280;30576;42.098;24.876;2023-03-12T07:21:13;99186.31;;;8.21;38.67
44839;BME280;30576;42.098;24.876;2023-03-12T07:23:49;99164.84;;;7.90;37.07
44839;BME280;30576;42.098;24.876;2023-03-12T07:26:15;99188.09;;;8.19;37.08
44839;BME280;30576;42.098;24.876;2023-03-12T07:28:40;99208.22;;;8.22;37.56
44839;BME280;30576;42.098;24.876;2023-03-12T07:31:06;99200.53;;;8.72;36.64
44839;BME280;30576;42.098;24.876;2023-03-12T07:33:31;99217.47;;;8.52;36.21
44839;BME280;30576;42.098;24.876;2023-03-12T07:35:57;99214.78;;;8.57;36.56
44839;BME280;30576;42.098;24.876;2023-03-12T07:38:22;99223.63;;;8.53;36.46
44839;BME280;30576;42.098;24.876;2023-03-12T07:40:51;99213.91;;;8.56;36.96
44839;BME280;30576;42.098;24.876;2023-03-12T07:43:17;99217.59;;;8.40;34.94
44839;BME280;30576;42.098;24.876;2023-03-12T07:45:43;99221.78;;;8.58;36.94
44839;BME280;30576;42.098;24.876;2023-03-12T07:48:08;99221.78;;;8.58;34.09
44839;BME280;30576;42.098;24.876;2023-03-12T07:50:34;99218.19;;;8.65;34.43
44839;BME280;30576;42.098;24.876;2023-03-12T07:53:00;99233.81;;;8.74;34.35
44839;BME280;30576;42.098;24.876;2023-03-12T07:55:26;99226.72;;;8.80;34.36
44839;BME280;30576;42.098;24.876;2023-03-12T07:57:51;99226.56;;;8.90;35.31
44839;BME280;30576;42.098;24.876;2023-03-12T08:00:17;99227.69;;;9.28;33.80
44839;BME280;30576;42.098;24.876;2023-03-12T08:02:43;99224.63;;;9.00;34.12
44839;BME280;30576;42.098;24.876;2023-03-12T08:05:08;99231.97;;;9.34;35.38
44839;BME280;30576;42.098;24.876;2023-03-12T08:07:34;99218.63;;;9.45;34.94
44839;BME280;30576;42.098;24.876;2023-03-12T08:10:00;99231.91;;;9.87;34.76
44839;BME280;30576;42.098;24.876;2023-03-12T08:12:26;99232.53;;;9.53;34.71
44839;BME280;30576;42.098;24.876;2023-03-12T08:14:52;99219.13;;;9.65;33.92
44839;BME280;30576;42.098;24.876;2023-03-12T08:17:17;99231.97;;;9.34;35.43
44839;BME280;30576;42.098;24.876;2023-03-12T08:19:43;99219.31;;;9.56;35.52
44839;BME280;30576;42.098;24.876;2023-03-12T08:22:08;99219.75;;;9.78;35.14
44839;BME280;30576;42.098;24.876;2023-03-12T08:24:33;99208.53;;;9.70;34.02
44839;BME280;30576;42.098;24.876;2023-03-12T08:26:59;99221.53;;;9.28;34.20
44839;BME280;30576;42.098;24.876;2023-03-12T08:29:25;99223.44;;;9.20;35.00
44839;BME280;30576;42.098;24.876;2023-03-12T08:31:50;99229.25;;;9.87;35.63
44839;BME280;30576;42.098;24.876;2023-03-12T08:34:16;99232.84;;;9.83;33.42
44839;BME280;30576;42.098;24.876;2023-03-12T08:36:41;99240.28;;;10.06;35.18
44839;BME280;30576;42.098;24.876;2023-03-12T08:39:06;99244.03;;;10.39;34.20
44839;BME280;30576;42.098;24.876;2023-03-12T08:41:31;99246.81;;;10.33;32.65
44839;BME280;30576;42.098;24.876;2023-03-12T08:43:57;99237.97;;;10.34;33.46
44839;BME280;30576;42.098;24.876;2023-03-12T08:46:22;99244.28;;;10.27;33.87
44839;BME280;30576;42.098;24.876;2023-03-12T08:48:47;99231.03;;;10.30;33.66
44839;BME280;30576;42.098;24.876;2023-03-12T08:51:13;99227.28;;;9.98;33.35
44839;BME280;30576;42.098;24.876;2023-03-12T08:53:38;99227.34;;;9.95;33.17
44839;BME280;30576;42.098;24.876;2023-03-12T08:56:03;99233.94;;;10.16;33.13
44839;BME280;30576;42.098;24.876;2023-03-12T08:58:29;99233.75;;;9.80;34.54
44839;BME280;30576;42.098;24.876;2023-03-12T09:00:55;99226.88;;;10.61;34.57
44839;BME280;30576;42.098;24.876;2023-03-12T09:03:20;99225.53;;;10.80;33.38
44839;BME280;30576;42.098;24.876;2023-03-12T09:05:46;99236.44;;;10.65;31.79
44839;BME280;30576;42.098;24.876;2023-03-12T09:08:11;99236.69;;;10.12;31.72
44839;BME280;30576;42.098;24.876;2023-03-12T09:10:37;99239.13;;;10.21;31.86
44839;BME280;30576;42.098;24.876;2023-03-12T09:13:03;99229.53;;;10.17;31.09
44839;BME280;30576;42.098;24.876;2023-03-12T09:15:28;99228.97;;;10.02;31.84
44839;BME280;30576;42.098;24.876;2023-03-12T09:17:54;99243.94;;;9.99;31.70
44839;BME280;30576;42.098;24.876;2023-03-12T09:20:20;99242.03;;;10.07;31.98
44839;BME280;30576;42.098;24.876;2023-03-12T09:22:46;99235.63;;;9.75;31.49
44839;BME280;30576;42.098;24.876;2023-03-12T09:25:11;99243.28;;;9.88;32.70
44839;BME280;30576;42.098;24.876;2023-03-12T09:27:41;99242.47;;;9.85;31.72
44839;BME280;30576;42.098;24.876;2023-03-12T09:30:07;99252.94;;;9.89;33.56
44839;BME280;30576;42.098;24.876;2023-03-12T09:32:33;99246.59;;;9.97;32.66
44839;BME280;30576;42.098;24.876;2023-03-12T09:34:58;99254.09;;;9.74;32.69
44839;BME280;30576;42.098;24.876;2023-03-12T09:37:24;99251.91;;;9.96;32.94
44839;BME280;30576;42.098;24.876;2023-03-12T09:39:49;99274.94;;;9.86;32.31
44839;BME280;30576;42.098;24.876;2023-03-12T09:42:20;99271.16;;;10.01;32.01
44839;BME280;30576;42.098;24.876;2023-03-12T09:44:47;99272.09;;;9.97;31.33
44839;BME280;30576;42.098;24.876;2023-03-12T09:47:34;99279.41;;;9.82;32.29
44839;BME280;30576;42.098;24.876;2023-03-12T09:49:58;99270.03;;;10.56;32.15
44839;BME280;30576;42.098;24.876;2023-03-12T09:52:33;99277.97;;;10.55;34.00
44839;BME280;30576;42.098;24.876;2023-03-12T09:55:07;99265.69;;;10.54;30.86
44839;BME280;30576;42.098;24.876;2023-03-12T09:57:36;99260.91;;;10.29;30.00
44839;BME280;30576;42.098;24.876;2023-03-12T10:00:02;99268.78;;;10.31;31.24
44839;BME280;30576;42.098;24.876;2023-03-12T10:05:23;99267.16;;;10.67;32.56
44839;BME280;30576;42.098;24.876;2023-03-12T10:08:01;99269.34;;;10.87;32.42
44839;BME280;30576;42.098;24.876;2023-03-12T10:21:29;99281.72;;;10.45;33.60
44839;BME280;30576;42.098;24.876;2023-03-12T10:24:14;99285.44;;;10.34;33.49
44839;BME280;30576;42.098;24.876;2023-03-12T10:26:51;99292.72;;;10.64;33.55
44839;BME280;30576;42.098;24.876;2023-03-12T10:29:19;99288.84;;;10.41;32.48
44839;BME280;30576;42.098;24.876;2023-03-12T10:34:20;99309.09;;;10.37;32.40
44839;BME280;30576;42.098;24.876;2023-03-12T10:36:47;99296.41;;;10.56;31.52
44839;BME280;30576;42.098;24.876;2023-03-12T10:39:13;99302.31;;;10.68;32.80
44839;BME280;30576;42.098;24.876;2023-03-12T10:41:40;99304.72;;;10.79;32.17
44839;BME280;30576;42.098;24.876;2023-03-12T10:44:07;99287.88;;;10.84;32.00
44839;BME280;30576;42.098;24.876;2023-03-12T10:46:42;99281.59;;;10.90;31.86
44839;BME280;30576;42.098;24.876;2023-03-12T10:51:54;99292.19;;;10.88;31.66
44839;BME280;30576;42.098;24.876;2023-03-12T10:54:22;99287.72;;;10.90;33.32
44839;BME280;30576;42.098;24.876;2023-03-12T10:56:50;99291.34;;;11.25;33.04
44839;BME280;30576;42.098;24.876;2023-03-12T10:59:19;99289.34;;;11.34;32.02
44839;BME280;30576;42.098;24.876;2023-03-12T11:01:46;99284.72;;;11.07;30.61
44839;BME280;30576;42.098;24.876;2023-03-12T11:06:38;99289.97;;;11.07;32.89
44839;BME280;30576;42.098;24.876;2023-03-12T11:09:17;99293.94;;;10.89;34.00
44839;BME280;30576;42.098;24.876;2023-03-12T11:11:44;99296.38;;;10.99;32.04
44839;BME280;30576;42.098;24.876;2023-03-12T11:14:18;99298.72;;;11.11;32.56
44839;BME280;30576;42.098;24.876;2023-03-12T11:16:44;99291.09;;;11.35;32.87
44839;BME280;30576;42.098;24.876;2023-03-12T11:19:14;99290.75;;;11.49;33.07
44839;BME280;30576;42.098;24.876;2023-03-12T11:22:00;99286.69;;;11.35;32.69
44839;BME280;30576;42.098;24.876;2023-03-12T11:24:25;99288.47;;;11.35;33.32
44839;BME280;30576;42.098;24.876;2023-03-12T11:26:52;99295.34;;;11.42;31.73
44839;BME280;30576;42.098;24.876;2023-03-12T11:29:27;99286.41;;;11.10;30.87
44839;BME280;30576;42.098;24.876;2023-03-12T11:31:57;99285.09;;;10.90;31.03
44839;BME280;30576;42.098;24.876;2023-03-12T11:34:33;99279.56;;;11.01;31.15
44839;BME280;30576;42.098;24.876;2023-03-12T11:58:00;99268.72;;;11.14;31.39
44839;BME280;30576;42.098;24.876;2023-03-12T12:00:32;99279.06;;;11.23;32.61
44839;BME280;30576;42.098;24.876;2023-03-12T12:05:34;99276.97;;;11.72;31.39
44839;BME280;30576;42.098;24.876;2023-03-12T12:10:33;99279.03;;;11.24;31.24
44839;BME280;30576;42.098;24.876;2023-03-12T12:13:21;99276.84;;;11.42;32.75
44839;BME280;30576;42.098;24.876;2023-03-12T12:32:25;99279.09;;;11.57;30.58
44839;BME280;30576;42.098;24.876;2023-03-12T12:36:49;99286.38;;;11.47;30.25
44839;BME280;30576;42.098;24.876;2023-03-12T12:39:23;99280.75;;;11.61;30.13
44839;BME280;30576;42.098;24.876;2023-03-12T12:41:52;99289.56;;;11.96;30.19
44839;BME280;30576;42.098;24.876;2023-03-12T12:44:20;99287.44;;;12.09;29.78
44839;BME280;30576;42.098;24.876;2023-03-12T12:46:47;99297.91;;;12.12;30.28
44839;BME280;30576;42.098;24.876;2023-03-12T12:51:40;99292.88;;;12.36;30.26
44839;BME280;30576;42.098;24.876;2023-03-12T12:54:11;99287.03;;;12.23;30.29
44839;BME280;30576;42.098;24.876;2023-03-12T13:01:51;99287.38;;;12.44;29.92
44839;BME280;30576;42.098;24.876;2023-03-12T13:04:34;99294.28;;;12.48;29.92
44839;BME280;30576;42.098;24.876;2023-03-12T13:09:39;99288.63;;;12.30;29.08
44839;BME280;30576;42.098;24.876;2023-03-12T13:12:28;99281.50;;;12.32;28.74
44839;BME280;30576;42.098;24.876;2023-03-12T13:14:51;99283.56;;;12.52;29.35
44839;BME280;30576;42.098;24.876;2023-03-12T13:17:24;99284.75;;;12.72;29.05
44839;BME280;30576;42.098;24.876;2023-03-12T13:20:26;99265.50;;;12.67;29.91
44839;BME280;30576;42.098;24.876;2023-03-12T13:27:47;99279.31;;;12.77;28.27
44839;BME280;30576;42.098;24.876;2023-03-12T13:48:35;99301.09;;;12.57;27.24
44839;BME280;30576;42.098;24.876;2023-03-12T13:53:59;99305.38;;;12.29;27.87
44839;BME280;30576;42.098;24.876;2023-03-12T13:56:26;99300.22;;;12.56;28.42
44839;BME280;30576;42.098;24.876;2023-03-12T13:59:12;99292.09;;;12.92;28.94
44839;BME280;30576;42.098;24.876;2023-03-12T14:01:40;99294.03;;;12.87;28.22
44839;BME280;30576;42.098;24.876;2023-03-12T14:04:09;99300.94;;;12.91;27.82
44839;BME280;30576;42.098;24.876;2023-03-12T14:16:53;99301.31;;;12.79;27.37
44839;BME280;30576;42.098;24.876;2023-03-12T14:19:22;99296.91;;;12.79;27.19
44839;BME280;30576;42.098;24.876;2023-03-12T14:21:48;99303.72;;;12.86;27.48
44839;BME280;30576;42.098;24.876;2023-03-12T14:26:43;99305.22;;;12.95;27.99
44839;BME280;30576;42.098;24.876;2023-03-12T14:29:13;99314.28;;;13.16;27.75
44839;BME280;30576;42.098;24.876;2023-03-12T14:31:43;99314.28;;;13.45;27.22
44839;BME280;30576;42.098;24.876;2023-03-12T14:34:16;99311.44;;;13.22;26.73
44839;BME280;30576;42.098;24.876;2023-03-12T14:39:29;99322.25;;;13.16;27.15
44839;BME280;30576;42.098;24.876;2023-03-12T14:42:00;99329.59;;;13.06;26.95
44839;BME280;30576;42.098;24.876;2023-03-12T14:44:27;99324.44;;;13.02;26.62
44839;BME280;30576;42.098;24.876;2023-03-12T14:47:00;99322.09;;;12.91;26.98
44839;BME280;30576;42.098;24.876;2023-03-12T14:49:26;99328.72;;;12.78;28.99
44839;BME280;30576;42.098;24.876;2023-03-12T14:51:52;99331.94;;;12.87;27.96
44839;BME280;30576;42.098;24.876;2023-03-12T14:54:18;99344.44;;;12.82;27.80
44839;BME280;30576;42.098;24.876;2023-03-12T14:56:44;99334.72;;;12.83;27.65
44839;BME280;30576;42.098;24.876;2023-03-12T14:59:24;99340.53;;;12.94;28.19
44839;BME280;30576;42.098;24.876;2023-03-12T15:01:49;99346.13;;;12.85;27.66